Terminal Aerodrome Forecast
Issued by NWS

Current Version | Previous Version | Text Only | Print | Product List | Glossary On
Versions: 1 2 3 4 5 6 7 8 9 10 11 12 13 14
000
FTUS42 KGSP 212328
TAFGMU
TAF
KGMU 212328Z 2200/2224 09005KT P6SM VCSH OVC040
     FM220400 06006KT P6SM VCSH OVC025
      TEMPO 2207/2209 2SM -SHRA OVC003
     FM220900 04005KT 5SM -SHRA BR OVC003
     FM221300 04005KT 3SM BR VCSH OVC015 PROB30 2213/2216 2SM -SHRA
      BR OVC007
     FM221600 04005KT P6SM OVC015
     FM222000 05005KT P6SM VCSH OVC020=

USA.gov is the U.S. government's official web portal to all federal, state and local government web resources and services.